sensor_id;sensor_type;location;lat;lon;timestamp;P1;durP1;ratioP1;P2;durP2;ratioP2
495;SDS011;39559;48.630;9.162;2023-03-21T00:01:20;5.87;;;5.27;;
495;SDS011;39559;48.630;9.162;2023-03-21T00:03:45;5.83;;;4.60;;
495;SDS011;39559;48.630;9.162;2023-03-21T00:06:13;9.38;;;5.72;;
495;SDS011;39559;48.630;9.162;2023-03-21T00:08:39;6.70;;;5.63;;
495;SDS011;39559;48.630;9.162;2023-03-21T00:11:06;5.75;;;5.15;;
495;SDS011;39559;48.630;9.162;2023-03-21T00:13:34;6.05;;;5.43;;
495;SDS011;39559;48.630;9.162;2023-03-21T00:16:06;6.18;;;5.57;;
495;SDS011;39559;48.630;9.162;2023-03-21T00:18:34;6.35;;;5.75;;
495;SDS011;39559;48.630;9.162;2023-03-21T00:22:53;5.30;;;4.80;;
495;SDS011;39559;48.630;9.162;2023-03-21T00:25:20;6.00;;;5.10;;
495;SDS011;39559;48.630;9.162;2023-03-21T00:27:46;6.45;;;4.80;;
495;SDS011;39559;48.630;9.162;2023-03-21T00:30:12;5.33;;;4.83;;
495;SDS011;39559;48.630;9.162;2023-03-21T00:32:38;5.05;;;4.55;;
495;SDS011;39559;48.630;9.162;2023-03-21T00:35:05;6.07;;;4.80;;
495;SDS011;39559;48.630;9.162;2023-03-21T00:37:31;5.30;;;4.20;;
495;SDS011;39559;48.630;9.162;2023-03-21T00:39:57;5.93;;;4.87;;
495;SDS011;39559;48.630;9.162;2023-03-21T00:42:24;5.00;;;4.50;;
495;SDS011;39559;48.630;9.162;2023-03-21T00:46:51;4.60;;;4.18;;
495;SDS011;39559;48.630;9.162;2023-03-21T00:49:17;5.17;;;4.70;;
495;SDS011;39559;48.630;9.162;2023-03-21T00:51:45;5.40;;;4.90;;
495;SDS011;39559;48.630;9.162;2023-03-21T00:54:15;4.93;;;4.40;;
495;SDS011;39559;48.630;9.162;2023-03-21T00:56:42;4.35;;;3.95;;
495;SDS011;39559;48.630;9.162;2023-03-21T00:59:07;4.82;;;4.30;;
495;SDS011;39559;48.630;9.162;2023-03-21T01:01:33;6.90;;;5.80;;
495;SDS011;39559;48.630;9.162;2023-03-21T01:04:00;5.17;;;4.33;;
495;SDS011;39559;48.630;9.162;2023-03-21T01:06:34;4.65;;;4.10;;
495;SDS011;39559;48.630;9.162;2023-03-21T01:10:50;4.88;;;4.28;;
495;SDS011;39559;48.630;9.162;2023-03-21T01:13:17;5.75;;;4.35;;
495;SDS011;39559;48.630;9.162;2023-03-21T01:15:44;4.57;;;3.95;;
495;SDS011;39559;48.630;9.162;2023-03-21T01:18:14;3.35;;;3.10;;
495;SDS011;39559;48.630;9.162;2023-03-21T01:20:41;3.55;;;3.25;;
495;SDS011;39559;48.630;9.162;2023-03-21T01:23:08;3.97;;;3.20;;
495;SDS011;39559;48.630;9.162;2023-03-21T01:25:34;3.20;;;2.90;;
495;SDS011;39559;48.630;9.162;2023-03-21T01:28:00;3.13;;;2.77;;
495;SDS011;39559;48.630;9.162;2023-03-21T01:30:26;3.77;;;3.47;;
495;SDS011;39559;48.630;9.162;2023-03-21T01:34:49;3.35;;;3.15;;
495;SDS011;39559;48.630;9.162;2023-03-21T01:37:14;3.80;;;3.37;;
495;SDS011;39559;48.630;9.162;2023-03-21T01:39:41;9.75;;;4.22;;
495;SDS011;39559;48.630;9.162;2023-03-21T01:42:09;4.00;;;3.60;;
495;SDS011;39559;48.630;9.162;2023-03-21T01:47:53;3.45;;;3.20;;
495;SDS011;39559;48.630;9.162;2023-03-21T01:50:19;4.50;;;3.20;;
495;SDS011;39559;48.630;9.162;2023-03-21T01:52:47;3.58;;;3.28;;
495;SDS011;39559;48.630;9.162;2023-03-21T01:55:14;4.32;;;2.80;;
495;SDS011;39559;48.630;9.162;2023-03-21T01:58:48;4.15;;;3.45;;
495;SDS011;39559;48.630;9.162;2023-03-21T02:01:16;3.50;;;3.20;;
495;SDS011;39559;48.630;9.162;2023-03-21T02:03:43;3.45;;;3.15;;
495;SDS011;39559;48.630;9.162;2023-03-21T02:06:16;4.00;;;3.55;;
495;SDS011;39559;48.630;9.162;2023-03-21T02:08:48;4.38;;;3.70;;
495;SDS011;39559;48.630;9.162;2023-03-21T02:11:14;3.83;;;3.50;;
495;SDS011;39559;48.630;9.162;2023-03-21T02:13:41;4.25;;;3.85;;
495;SDS011;39559;48.630;9.162;2023-03-21T02:16:17;4.03;;;3.73;;
495;SDS011;39559;48.630;9.162;2023-03-21T02:18:57;4.45;;;4.05;;
495;SDS011;39559;48.630;9.162;2023-03-21T02:41:59;4.35;;;3.63;;
495;SDS011;39559;48.630;9.162;2023-03-21T02:51:45;6.17;;;4.97;;
495;SDS011;39559;48.630;9.162;2023-03-21T02:54:20;5.88;;;4.18;;
495;SDS011;39559;48.630;9.162;2023-03-21T02:56:48;8.43;;;4.60;;
495;SDS011;39559;48.630;9.162;2023-03-21T02:59:16;4.70;;;4.30;;
495;SDS011;39559;48.630;9.162;2023-03-21T03:01:45;5.72;;;5.30;;
495;SDS011;39559;48.630;9.162;2023-03-21T03:04:23;5.60;;;4.80;;
495;SDS011;39559;48.630;9.162;2023-03-21T03:13:53;5.32;;;4.82;;
495;SDS011;39559;48.630;9.162;2023-03-21T03:19:01;4.90;;;4.38;;
495;SDS011;39559;48.630;9.162;2023-03-21T03:29:19;5.45;;;4.38;;
495;SDS011;39559;48.630;9.162;2023-03-21T03:31:49;4.65;;;4.22;;
495;SDS011;39559;48.630;9.162;2023-03-21T03:34:43;4.45;;;4.05;;
495;SDS011;39559;48.630;9.162;2023-03-21T03:37:15;5.25;;;4.75;;
495;SDS011;39559;48.630;9.162;2023-03-21T03:39:46;6.05;;;5.55;;
495;SDS011;39559;48.630;9.162;2023-03-21T03:42:45;5.07;;;4.05;;
495;SDS011;39559;48.630;9.162;2023-03-21T03:45:13;4.05;;;3.75;;
495;SDS011;39559;48.630;9.162;2023-03-21T03:50:24;5.07;;;3.90;;
495;SDS011;39559;48.630;9.162;2023-03-21T03:52:56;4.80;;;4.28;;
495;SDS011;39559;48.630;9.162;2023-03-21T03:55:31;5.40;;;4.90;;
495;SDS011;39559;48.630;9.162;2023-03-21T03:58:42;5.57;;;4.03;;
495;SDS011;39559;48.630;9.162;2023-03-21T04:01:08;4.82;;;4.25;;
495;SDS011;39559;48.630;9.162;2023-03-21T04:03:34;7.57;;;4.90;;
495;SDS011;39559;48.630;9.162;2023-03-21T04:06:02;5.53;;;4.97;;
495;SDS011;39559;48.630;9.162;2023-03-21T04:08:28;4.87;;;4.07;;
495;SDS011;39559;48.630;9.162;2023-03-21T04:10:54;5.90;;;4.07;;
495;SDS011;39559;48.630;9.162;2023-03-21T04:13:20;5.40;;;4.90;;
495;SDS011;39559;48.630;9.162;2023-03-21T04:15:46;7.72;;;5.72;;
495;SDS011;39559;48.630;9.162;2023-03-21T04:18:12;9.07;;;6.17;;
495;SDS011;39559;48.630;9.162;2023-03-21T04:22:40;8.18;;;7.25;;
495;SDS011;39559;48.630;9.162;2023-03-21T04:25:06;6.83;;;5.23;;
495;SDS011;39559;48.630;9.162;2023-03-21T04:27:33;5.45;;;4.60;;
495;SDS011;39559;48.630;9.162;2023-03-21T04:29:58;6.83;;;4.87;;
495;SDS011;39559;48.630;9.162;2023-03-21T04:32:24;5.57;;;4.63;;
495;SDS011;39559;48.630;9.162;2023-03-21T04:34:51;7.07;;;5.57;;
495;SDS011;39559;48.630;9.162;2023-03-21T04:37:19;6.07;;;5.07;;
495;SDS011;39559;48.630;9.162;2023-03-21T04:39:48;4.90;;;4.50;;
495;SDS011;39559;48.630;9.162;2023-03-21T04:42:17;6.25;;;5.10;;
495;SDS011;39559;48.630;9.162;2023-03-21T04:46:40;4.88;;;4.25;;
495;SDS011;39559;48.630;9.162;2023-03-21T04:49:06;4.82;;;4.40;;
495;SDS011;39559;48.630;9.162;2023-03-21T04:51:32;5.28;;;4.20;;
495;SDS011;39559;48.630;9.162;2023-03-21T04:53:58;5.60;;;5.07;;
495;SDS011;39559;48.630;9.162;2023-03-21T04:56:24;6.00;;;4.77;;
495;SDS011;39559;48.630;9.162;2023-03-21T04:58:56;4.72;;;4.13;;
495;SDS011;39559;48.630;9.162;2023-03-21T05:01:24;6.80;;;4.50;;
495;SDS011;39559;48.630;9.162;2023-03-21T05:03:55;4.93;;;4.07;;
495;SDS011;39559;48.630;9.162;2023-03-21T05:06:22;5.90;;;4.50;;
495;SDS011;39559;48.630;9.162;2023-03-21T05:10:38;4.20;;;3.80;;
495;SDS011;39559;48.630;9.162;2023-03-21T05:13:04;5.03;;;4.57;;
495;SDS011;39559;48.630;9.162;2023-03-21T05:15:29;5.07;;;4.10;;
495;SDS011;39559;48.630;9.162;2023-03-21T05:17:55;5.23;;;4.07;;
495;SDS011;39559;48.630;9.162;2023-03-21T05:20:23;4.55;;;4.13;;
495;SDS011;39559;48.630;9.162;2023-03-21T05:22:49;5.70;;;5.20;;
495;SDS011;39559;48.630;9.162;2023-03-21T05:25:16;5.10;;;4.60;;
495;SDS011;39559;48.630;9.162;2023-03-21T05:27:45;6.63;;;6.00;;
495;SDS011;39559;48.630;9.162;2023-03-21T05:30:18;6.53;;;5.82;;
495;SDS011;39559;48.630;9.162;2023-03-21T05:34:38;7.53;;;6.82;;
495;SDS011;39559;48.630;9.162;2023-03-21T05:37:03;6.67;;;6.07;;
495;SDS011;39559;48.630;9.162;2023-03-21T05:39:29;7.20;;;5.93;;
495;SDS011;39559;48.630;9.162;2023-03-21T05:41:54;7.10;;;6.40;;
495;SDS011;39559;48.630;9.162;2023-03-21T05:44:20;7.40;;;6.70;;
495;SDS011;39559;48.630;9.162;2023-03-21T05:46:45;7.33;;;6.63;;
495;SDS011;39559;48.630;9.162;2023-03-21T05:49:11;6.47;;;5.97;;
495;SDS011;39559;48.630;9.162;2023-03-21T05:51:36;7.80;;;6.50;;
495;SDS011;39559;48.630;9.162;2023-03-21T05:54:02;7.83;;;6.20;;
495;SDS011;39559;48.630;9.162;2023-03-21T05:58:37;6.97;;;5.93;;
495;SDS011;39559;48.630;9.162;2023-03-21T06:01:02;6.27;;;5.70;;
495;SDS011;39559;48.630;9.162;2023-03-21T06:03:28;7.13;;;6.43;;
495;SDS011;39559;48.630;9.162;2023-03-21T06:05:54;6.60;;;6.00;;
495;SDS011;39559;48.630;9.162;2023-03-21T06:08:19;7.03;;;6.30;;
495;SDS011;39559;48.630;9.162;2023-03-21T06:10:45;6.90;;;6.20;;
495;SDS011;39559;48.630;9.162;2023-03-21T06:13:10;7.37;;;6.67;;
495;SDS011;39559;48.630;9.162;2023-03-21T06:15:36;7.03;;;6.40;;
495;SDS011;39559;48.630;9.162;2023-03-21T06:18:01;8.10;;;7.30;;
495;SDS011;39559;48.630;9.162;2023-03-21T06:22:36;8.77;;;7.80;;
495;SDS011;39559;48.630;9.162;2023-03-21T06:25:02;7.90;;;7.10;;
495;SDS011;39559;48.630;9.162;2023-03-21T06:27:29;8.13;;;7.32;;
495;SDS011;39559;48.630;9.162;2023-03-21T06:29:55;11.43;;;6.90;;
495;SDS011;39559;48.630;9.162;2023-03-21T06:32:22;7.65;;;6.85;;
495;SDS011;39559;48.630;9.162;2023-03-21T06:34:48;7.57;;;6.88;;
495;SDS011;39559;48.630;9.162;2023-03-21T06:37:13;8.27;;;7.20;;
495;SDS011;39559;48.630;9.162;2023-03-21T06:39:39;7.53;;;6.67;;
495;SDS011;39559;48.630;9.162;2023-03-21T06:42:05;7.40;;;6.70;;
495;SDS011;39559;48.630;9.162;2023-03-21T06:46:35;4.35;;;3.80;;
495;SDS011;39559;48.630;9.162;2023-03-21T06:49:01;4.17;;;3.87;;
495;SDS011;39559;48.630;9.162;2023-03-21T06:51:26;4.40;;;4.00;;
495;SDS011;39559;48.630;9.162;2023-03-21T06:53:52;5.93;;;4.17;;
495;SDS011;39559;48.630;9.162;2023-03-21T06:56:17;4.80;;;4.20;;
495;SDS011;39559;48.630;9.162;2023-03-21T06:58:44;5.75;;;4.97;;
495;SDS011;39559;48.630;9.162;2023-03-21T07:01:10;6.65;;;4.50;;
495;SDS011;39559;48.630;9.162;2023-03-21T07:03:36;5.10;;;4.60;;
495;SDS011;39559;48.630;9.162;2023-03-21T07:06:08;6.17;;;5.43;;
495;SDS011;39559;48.630;9.162;2023-03-21T07:10:37;6.97;;;5.03;;
495;SDS011;39559;48.630;9.162;2023-03-21T07:13:03;6.50;;;5.60;;
495;SDS011;39559;48.630;9.162;2023-03-21T07:15:28;6.43;;;4.60;;
495;SDS011;39559;48.630;9.162;2023-03-21T07:17:54;6.47;;;5.83;;
495;SDS011;39559;48.630;9.162;2023-03-21T07:20:20;6.13;;;5.43;;
495;SDS011;39559;48.630;9.162;2023-03-21T07:22:45;6.07;;;5.47;;
495;SDS011;39559;48.630;9.162;2023-03-21T07:25:11;5.97;;;5.40;;
495;SDS011;39559;48.630;9.162;2023-03-21T07:27:36;5.93;;;4.80;;
495;SDS011;39559;48.630;9.162;2023-03-21T07:30:03;8.33;;;7.50;;
495;SDS011;39559;48.630;9.162;2023-03-21T07:34:34;9.45;;;7.47;;
495;SDS011;39559;48.630;9.162;2023-03-21T07:37:00;8.43;;;7.20;;
495;SDS011;39559;48.630;9.162;2023-03-21T07:39:26;8.70;;;7.80;;
495;SDS011;39559;48.630;9.162;2023-03-21T07:41:52;6.85;;;6.22;;
495;SDS011;39559;48.630;9.162;2023-03-21T07:44:21;6.53;;;5.90;;
495;SDS011;39559;48.630;9.162;2023-03-21T07:46:48;8.15;;;7.35;;
495;SDS011;39559;48.630;9.162;2023-03-21T07:49:14;7.10;;;6.50;;
495;SDS011;39559;48.630;9.162;2023-03-21T07:51:40;10.00;;;6.03;;
495;SDS011;39559;48.630;9.162;2023-03-21T07:54:05;6.77;;;6.10;;
495;SDS011;39559;48.630;9.162;2023-03-21T07:58:33;7.25;;;5.97;;
495;SDS011;39559;48.630;9.162;2023-03-21T08:00:59;7.10;;;6.40;;
495;SDS011;39559;48.630;9.162;2023-03-21T08:03:26;7.13;;;6.43;;
495;SDS011;39559;48.630;9.162;2023-03-21T08:05:54;6.55;;;5.20;;
495;SDS011;39559;48.630;9.162;2023-03-21T08:08:20;6.20;;;5.70;;
495;SDS011;39559;48.630;9.162;2023-03-21T08:10:45;6.03;;;5.43;;
495;SDS011;39559;48.630;9.162;2023-03-21T08:13:11;5.47;;;4.97;;
495;SDS011;39559;48.630;9.162;2023-03-21T08:15:37;5.80;;;5.30;;
495;SDS011;39559;48.630;9.162;2023-03-21T08:18:06;5.65;;;5.15;;
495;SDS011;39559;48.630;9.162;2023-03-21T08:22:33;5.68;;;5.18;;
495;SDS011;39559;48.630;9.162;2023-03-21T08:25:00;5.18;;;4.68;;
495;SDS011;39559;48.630;9.162;2023-03-21T08:27:30;5.50;;;4.70;;
495;SDS011;39559;48.630;9.162;2023-03-21T08:29:57;4.93;;;4.53;;
495;SDS011;39559;48.630;9.162;2023-03-21T08:32:24;5.40;;;4.90;;
495;SDS011;39559;48.630;9.162;2023-03-21T08:34:54;4.40;;;4.00;;
495;SDS011;39559;48.630;9.162;2023-03-21T08:37:23;3.95;;;3.60;;
495;SDS011;39559;48.630;9.162;2023-03-21T08:39:49;4.47;;;4.07;;
495;SDS011;39559;48.630;9.162;2023-03-21T08:42:15;4.28;;;3.88;;
495;SDS011;39559;48.630;9.162;2023-03-21T08:46:32;3.88;;;3.47;;
495;SDS011;39559;48.630;9.162;2023-03-21T08:48:58;4.73;;;3.83;;
495;SDS011;39559;48.630;9.162;2023-03-21T08:51:23;4.33;;;3.73;;
495;SDS011;39559;48.630;9.162;2023-03-21T08:53:49;5.57;;;4.43;;
495;SDS011;39559;48.630;9.162;2023-03-21T08:56:17;4.13;;;3.75;;
495;SDS011;39559;48.630;9.162;2023-03-21T08:58:43;3.80;;;3.50;;
495;SDS011;39559;48.630;9.162;2023-03-21T09:01:09;3.92;;;3.35;;
495;SDS011;39559;48.630;9.162;2023-03-21T09:03:40;4.10;;;3.80;;
495;SDS011;39559;48.630;9.162;2023-03-21T09:06:06;4.75;;;4.10;;
495;SDS011;39559;48.630;9.162;2023-03-21T09:10:32;4.22;;;3.92;;
495;SDS011;39559;48.630;9.162;2023-03-21T09:12:58;3.67;;;3.38;;
495;SDS011;39559;48.630;9.162;2023-03-21T09:15:25;4.23;;;3.93;;
495;SDS011;39559;48.630;9.162;2023-03-21T09:17:53;3.78;;;3.47;;
495;SDS011;39559;48.630;9.162;2023-03-21T09:20:21;4.65;;;3.75;;
495;SDS011;39559;48.630;9.162;2023-03-21T09:22:54;3.60;;;3.30;;
495;SDS011;39559;48.630;9.162;2023-03-21T09:25:21;3.70;;;3.40;;
495;SDS011;39559;48.630;9.162;2023-03-21T09:27:49;5.47;;;3.40;;
495;SDS011;39559;48.630;9.162;2023-03-21T09:30:16;3.70;;;3.40;;
495;SDS011;39559;48.630;9.162;2023-03-21T09:34:31;3.58;;;3.10;;
495;SDS011;39559;48.630;9.162;2023-03-21T09:36:56;3.27;;;3.07;;
495;SDS011;39559;48.630;9.162;2023-03-21T09:39:22;3.40;;;3.10;;
495;SDS011;39559;48.630;9.162;2023-03-21T09:41:54;3.43;;;3.10;;
495;SDS011;39559;48.630;9.162;2023-03-21T09:47:03;3.22;;;2.92;;
495;SDS011;39559;48.630;9.162;2023-03-21T09:49:40;3.15;;;2.85;;
495;SDS011;39559;48.630;9.162;2023-03-21T09:55:16;3.70;;;3.40;;
495;SDS011;39559;48.630;9.162;2023-03-21T09:58:40;3.50;;;3.20;;
495;SDS011;39559;48.630;9.162;2023-03-21T10:01:15;3.50;;;3.20;;
495;SDS011;39559;48.630;9.162;2023-03-21T10:04:05;3.90;;;3.50;;
495;SDS011;39559;48.630;9.162;2023-03-21T10:06:35;3.70;;;3.40;;
495;SDS011;39559;48.630;9.162;2023-03-21T10:12:01;4.03;;;3.72;;
495;SDS011;39559;48.630;9.162;2023-03-21T10:14:35;3.55;;;3.35;;
495;SDS011;39559;48.630;9.162;2023-03-21T10:17:22;4.35;;;4.00;;
495;SDS011;39559;48.630;9.162;2023-03-21T10:22:28;3.17;;;2.90;;
495;SDS011;39559;48.630;9.162;2023-03-21T10:24:54;2.83;;;2.63;;
495;SDS011;39559;48.630;9.162;2023-03-21T10:27:20;3.93;;;3.10;;
495;SDS011;39559;48.630;9.162;2023-03-21T10:29:46;3.35;;;2.90;;
495;SDS011;39559;48.630;9.162;2023-03-21T10:32:12;3.37;;;2.77;;
495;SDS011;39559;48.630;9.162;2023-03-21T10:34:42;3.10;;;2.88;;
495;SDS011;39559;48.630;9.162;2023-03-21T10:37:17;3.90;;;3.20;;
495;SDS011;39559;48.630;9.162;2023-03-21T10:39:44;3.47;;;3.17;;
495;SDS011;39559;48.630;9.162;2023-03-21T10:46:27;2.95;;;2.60;;
495;SDS011;39559;48.630;9.162;2023-03-21T10:48:53;3.00;;;2.70;;
495;SDS011;39559;48.630;9.162;2023-03-21T10:51:19;11.73;;;2.83;;
495;SDS011;39559;48.630;9.162;2023-03-21T10:53:57;3.63;;;3.15;;
495;SDS011;39559;48.630;9.162;2023-03-21T10:56:25;3.30;;;3.00;;
495;SDS011;39559;48.630;9.162;2023-03-21T10:58:55;3.60;;;3.30;;
495;SDS011;39559;48.630;9.162;2023-03-21T11:01:34;3.22;;;2.88;;
495;SDS011;39559;48.630;9.162;2023-03-21T11:04:07;2.85;;;2.65;;
495;SDS011;39559;48.630;9.162;2023-03-21T11:06:40;2.60;;;2.40;;
495;SDS011;39559;48.630;9.162;2023-03-21T11:10:30;3.08;;;2.83;;
495;SDS011;39559;48.630;9.162;2023-03-21T11:13:00;3.03;;;2.75;;
495;SDS011;39559;48.630;9.162;2023-03-21T11:18:44;2.80;;;2.60;;
495;SDS011;39559;48.630;9.162;2023-03-21T11:20:58;2.92;;;2.63;;
495;SDS011;39559;48.630;9.162;2023-03-21T11:23:29;3.60;;;3.00;;
495;SDS011;39559;48.630;9.162;2023-03-21T11:25:57;2.90;;;2.70;;
495;SDS011;39559;48.630;9.162;2023-03-21T11:28:25;3.03;;;2.65;;
495;SDS011;39559;48.630;9.162;2023-03-21T11:30:58;2.88;;;2.63;;
495;SDS011;39559;48.630;9.162;2023-03-21T11:34:25;3.30;;;3.00;;
495;SDS011;39559;48.630;9.162;2023-03-21T11:37:24;4.45;;;3.00;;
495;SDS011;39559;48.630;9.162;2023-03-21T11:40:35;3.50;;;3.20;;
495;SDS011;39559;48.630;9.162;2023-03-21T11:42:47;3.33;;;3.03;;
495;SDS011;39559;48.630;9.162;2023-03-21T11:45:22;3.33;;;3.03;;
495;SDS011;39559;48.630;9.162;2023-03-21T11:47:51;3.53;;;2.90;;
495;SDS011;39559;48.630;9.162;2023-03-21T11:53:44;3.38;;;3.08;;
495;SDS011;39559;48.630;9.162;2023-03-21T12:00:59;3.35;;;3.15;;
495;SDS011;39559;48.630;9.162;2023-03-21T12:06:44;3.20;;;2.95;;
495;SDS011;39559;48.630;9.162;2023-03-21T12:14:35;2.70;;;2.50;;
495;SDS011;39559;48.630;9.162;2023-03-21T12:24:54;3.13;;;2.83;;
495;SDS011;39559;48.630;9.162;2023-03-21T12:32:55;4.65;;;3.53;;
495;SDS011;39559;48.630;9.162;2023-03-21T12:51:21;4.45;;;4.15;;
495;SDS011;39559;48.630;9.162;2023-03-21T12:53:55;4.38;;;4.05;;
495;SDS011;39559;48.630;9.162;2023-03-21T13:01:55;4.22;;;3.80;;
495;SDS011;39559;48.630;9.162;2023-03-21T13:04:33;4.18;;;3.78;;
495;SDS011;39559;48.630;9.162;2023-03-21T13:07:06;3.70;;;3.40;;
495;SDS011;39559;48.630;9.162;2023-03-21T13:10:15;3.90;;;3.50;;
495;SDS011;39559;48.630;9.162;2023-03-21T13:15:59;3.23;;;2.93;;
495;SDS011;39559;48.630;9.162;2023-03-21T13:18:14;3.77;;;3.47;;
495;SDS011;39559;48.630;9.162;2023-03-21T13:21:09;3.43;;;3.13;;
495;SDS011;39559;48.630;9.162;2023-03-21T13:23:43;3.20;;;2.90;;
495;SDS011;39559;48.630;9.162;2023-03-21T13:26:30;2.83;;;2.63;;
495;SDS011;39559;48.630;9.162;2023-03-21T13:28:57;2.97;;;2.60;;
495;SDS011;39559;48.630;9.162;2023-03-21T13:31:24;2.60;;;2.40;;
495;SDS011;39559;48.630;9.162;2023-03-21T13:34:11;3.30;;;3.10;;
495;SDS011;39559;48.630;9.162;2023-03-21T13:36:37;3.13;;;2.90;;
495;SDS011;39559;48.630;9.162;2023-03-21T13:39:11;3.00;;;2.80;;
495;SDS011;39559;48.630;9.162;2023-03-21T13:41:48;3.00;;;2.80;;
495;SDS011;39559;48.630;9.162;2023-03-21T13:49:34;2.90;;;2.70;;
495;SDS011;39559;48.630;9.162;2023-03-21T13:52:23;3.40;;;2.83;;
495;SDS011;39559;48.630;9.162;2023-03-21T13:54:53;2.97;;;2.65;;
495;SDS011;39559;48.630;9.162;2023-03-21T14:03:58;3.10;;;2.80;;
495;SDS011;39559;48.630;9.162;2023-03-21T14:06:30;2.90;;;2.70;;
495;SDS011;39559;48.630;9.162;2023-03-21T14:09:13;3.10;;;2.80;;
495;SDS011;39559;48.630;9.162;2023-03-21T14:11:46;3.38;;;3.08;;
495;SDS011;39559;48.630;9.162;2023-03-21T14:14:15;6.30;;;3.45;;
495;SDS011;39559;48.630;9.162;2023-03-21T14:16:41;3.67;;;3.37;;
495;SDS011;39559;48.630;9.162;2023-03-21T14:19:09;3.20;;;3.00;;
495;SDS011;39559;48.630;9.162;2023-03-21T14:22:09;3.25;;;3.05;;
495;SDS011;39559;48.630;9.162;2023-03-21T14:24:37;3.55;;;2.80;;
495;SDS011;39559;48.630;9.162;2023-03-21T14:27:03;3.10;;;2.80;;
495;SDS011;39559;48.630;9.162;2023-03-21T14:29:31;3.10;;;2.90;;
495;SDS011;39559;48.630;9.162;2023-03-21T14:31:59;4.30;;;3.15;;
495;SDS011;39559;48.630;9.162;2023-03-21T14:34:26;4.22;;;3.83;;
495;SDS011;39559;48.630;9.162;2023-03-21T14:36:55;3.20;;;3.00;;
495;SDS011;39559;48.630;9.162;2023-03-21T14:39:24;3.20;;;2.92;;
495;SDS011;39559;48.630;9.162;2023-03-21T14:41:53;4.65;;;2.70;;
495;SDS011;39559;48.630;9.162;2023-03-21T14:46:11;3.05;;;2.83;;
495;SDS011;39559;48.630;9.162;2023-03-21T14:48:37;2.90;;;2.70;;
495;SDS011;39559;48.630;9.162;2023-03-21T14:51:06;2.80;;;2.60;;
495;SDS011;39559;48.630;9.162;2023-03-21T14:53:39;2.90;;;2.70;;
495;SDS011;39559;48.630;9.162;2023-03-21T14:56:15;2.78;;;2.58;;
495;SDS011;39559;48.630;9.162;2023-03-21T14:58:46;3.33;;;2.67;;
495;SDS011;39559;48.630;9.162;2023-03-21T15:01:13;2.60;;;2.40;;
495;SDS011;39559;48.630;9.162;2023-03-21T15:04:00;2.70;;;2.50;;
495;SDS011;39559;48.630;9.162;2023-03-21T15:06:30;3.28;;;2.30;;
495;SDS011;39559;48.630;9.162;2023-03-21T15:10:13;3.88;;;2.40;;
495;SDS011;39559;48.630;9.162;2023-03-21T15:13:17;2.47;;;1.80;;
495;SDS011;39559;48.630;9.162;2023-03-21T15:15:44;1.73;;;1.63;;
495;SDS011;39559;48.630;9.162;2023-03-21T15:18:13;1.98;;;1.77;;
495;SDS011;39559;48.630;9.162;2023-03-21T15:20:41;2.30;;;2.10;;
495;SDS011;39559;48.630;9.162;2023-03-21T15:23:21;2.30;;;2.10;;
495;SDS011;39559;48.630;9.162;2023-03-21T15:25:55;3.25;;;1.88;;
495;SDS011;39559;48.630;9.162;2023-03-21T15:28:21;2.40;;;2.20;;
495;SDS011;39559;48.630;9.162;2023-03-21T15:30:51;1.60;;;1.50;;
495;SDS011;39559;48.630;9.162;2023-03-21T15:33:55;1.98;;;1.60;;
495;SDS011;39559;48.630;9.162;2023-03-21T15:36:31;1.65;;;1.55;;
495;SDS011;39559;48.630;9.162;2023-03-21T15:39:04;1.63;;;1.53;;
495;SDS011;39559;48.630;9.162;2023-03-21T15:41:33;1.73;;;1.63;;
495;SDS011;39559;48.630;9.162;2023-03-21T15:46:31;2.37;;;2.20;;
495;SDS011;39559;48.630;9.162;2023-03-21T15:49:07;2.33;;;2.05;;
495;SDS011;39559;48.630;9.162;2023-03-21T15:51:34;2.30;;;2.10;;
495;SDS011;39559;48.630;9.162;2023-03-21T15:54:01;2.20;;;2.00;;
495;SDS011;39559;48.630;9.162;2023-03-21T15:57:52;1.90;;;1.70;;
495;SDS011;39559;48.630;9.162;2023-03-21T16:00:31;1.90;;;1.80;;
495;SDS011;39559;48.630;9.162;2023-03-21T16:03:09;2.00;;;1.90;;
495;SDS011;39559;48.630;9.162;2023-03-21T16:05:41;1.98;;;1.70;;
495;SDS011;39559;48.630;9.162;2023-03-21T16:11:26;2.40;;;2.20;;
495;SDS011;39559;48.630;9.162;2023-03-21T16:14:01;2.75;;;1.83;;
495;SDS011;39559;48.630;9.162;2023-03-21T16:16:27;1.95;;;1.85;;
495;SDS011;39559;48.630;9.162;2023-03-21T16:18:54;2.75;;;2.55;;
495;SDS011;39559;48.630;9.162;2023-03-21T16:21:46;4.07;;;2.70;;
495;SDS011;39559;48.630;9.162;2023-03-21T16:24:11;4.77;;;2.70;;
495;SDS011;39559;48.630;9.162;2023-03-21T16:26:47;3.53;;;3.00;;
495;SDS011;39559;48.630;9.162;2023-03-21T16:29:16;2.70;;;2.40;;
495;SDS011;39559;48.630;9.162;2023-03-21T16:31:43;3.53;;;2.80;;
495;SDS011;39559;48.630;9.162;2023-03-21T16:34:11;3.50;;;2.90;;
495;SDS011;39559;48.630;9.162;2023-03-21T16:36:37;3.60;;;3.30;;
495;SDS011;39559;48.630;9.162;2023-03-21T16:39:20;3.90;;;3.22;;
495;SDS011;39559;48.630;9.162;2023-03-21T16:41:48;4.60;;;3.72;;
495;SDS011;39559;48.630;9.162;2023-03-21T16:45:44;3.20;;;3.00;;
495;SDS011;39559;48.630;9.162;2023-03-21T16:48:09;3.30;;;3.00;;
495;SDS011;39559;48.630;9.162;2023-03-21T16:50:40;5.22;;;3.80;;
495;SDS011;39559;48.630;9.162;2023-03-21T16:53:07;3.85;;;3.53;;
495;SDS011;39559;48.630;9.162;2023-03-21T16:55:33;3.70;;;3.40;;
495;SDS011;39559;48.630;9.162;2023-03-21T16:58:01;4.35;;;3.33;;
495;SDS011;39559;48.630;9.162;2023-03-21T17:00:27;3.57;;;3.10;;
495;SDS011;39559;48.630;9.162;2023-03-21T17:02:55;3.92;;;3.53;;
495;SDS011;39559;48.630;9.162;2023-03-21T17:05:24;3.72;;;3.40;;
495;SDS011;39559;48.630;9.162;2023-03-21T17:09:39;3.83;;;3.40;;
495;SDS011;39559;48.630;9.162;2023-03-21T17:12:12;4.03;;;3.53;;
495;SDS011;39559;48.630;9.162;2023-03-21T17:14:40;4.22;;;3.83;;
495;SDS011;39559;48.630;9.162;2023-03-21T17:17:10;5.28;;;3.15;;
495;SDS011;39559;48.630;9.162;2023-03-21T17:19:37;4.80;;;3.40;;
495;SDS011;39559;48.630;9.162;2023-03-21T17:22:03;4.25;;;3.85;;
495;SDS011;39559;48.630;9.162;2023-03-21T17:24:29;3.97;;;3.10;;
495;SDS011;39559;48.630;9.162;2023-03-21T17:26:55;4.23;;;3.40;;
495;SDS011;39559;48.630;9.162;2023-03-21T17:29:21;3.60;;;3.30;;
495;SDS011;39559;48.630;9.162;2023-03-21T17:33:37;4.30;;;3.90;;
495;SDS011;39559;48.630;9.162;2023-03-21T17:36:03;4.73;;;4.33;;
495;SDS011;39559;48.630;9.162;2023-03-21T17:38:29;4.78;;;4.05;;
495;SDS011;39559;48.630;9.162;2023-03-21T17:40:55;4.37;;;3.90;;
495;SDS011;39559;48.630;9.162;2023-03-21T17:43:22;5.35;;;4.15;;
495;SDS011;39559;48.630;9.162;2023-03-21T17:45:48;5.03;;;4.53;;
495;SDS011;39559;48.630;9.162;2023-03-21T17:48:13;4.33;;;3.93;;
495;SDS011;39559;48.630;9.162;2023-03-21T17:50:39;5.07;;;3.70;;
495;SDS011;39559;48.630;9.162;2023-03-21T17:53:05;4.57;;;4.00;;
495;SDS011;39559;48.630;9.162;2023-03-21T17:57:34;7.75;;;4.20;;
495;SDS011;39559;48.630;9.162;2023-03-21T18:00:00;7.07;;;4.32;;
495;SDS011;39559;48.630;9.162;2023-03-21T18:02:33;4.80;;;4.30;;
495;SDS011;39559;48.630;9.162;2023-03-21T18:05:13;3.73;;;3.43;;
495;SDS011;39559;48.630;9.162;2023-03-21T18:07:46;4.07;;;3.42;;
495;SDS011;39559;48.630;9.162;2023-03-21T18:10:14;4.00;;;3.60;;
495;SDS011;39559;48.630;9.162;2023-03-21T18:12:42;4.05;;;3.55;;
495;SDS011;39559;48.630;9.162;2023-03-21T18:15:11;4.80;;;3.97;;
495;SDS011;39559;48.630;9.162;2023-03-21T18:17:37;3.20;;;2.90;;
495;SDS011;39559;48.630;9.162;2023-03-21T18:21:30;3.40;;;3.10;;
495;SDS011;39559;48.630;9.162;2023-03-21T18:23:56;3.67;;;3.37;;
495;SDS011;39559;48.630;9.162;2023-03-21T18:26:21;3.40;;;3.10;;
495;SDS011;39559;48.630;9.162;2023-03-21T18:28:48;3.22;;;2.90;;
495;SDS011;39559;48.630;9.162;2023-03-21T18:31:16;9.35;;;4.88;;
495;SDS011;39559;48.630;9.162;2023-03-21T18:33:44;4.55;;;3.50;;
495;SDS011;39559;48.630;9.162;2023-03-21T18:36:12;3.80;;;3.05;;
495;SDS011;39559;48.630;9.162;2023-03-21T18:38:40;4.40;;;3.08;;
495;SDS011;39559;48.630;9.162;2023-03-21T18:41:07;4.77;;;3.63;;
495;SDS011;39559;48.630;9.162;2023-03-21T18:45:27;2.90;;;2.60;;